createdAt,value
2023-07-18T00:00:30.898Z,6.30
2023-07-18T00:03:30.175Z,5.60
2023-07-18T00:06:28.094Z,6.05
2023-07-18T00:09:26.358Z,5.90
2023-07-18T00:12:24.843Z,6.45
2023-07-18T00:15:23.734Z,6.55
2023-07-18T00:18:23.204Z,5.45
2023-07-18T00:21:21.614Z,5.85
2023-07-18T00:24:19.672Z,5.80
2023-07-18T00:27:18.141Z,6.03
2023-07-18T00:30:16.371Z,5.75
2023-07-18T00:33:14.108Z,5.57
2023-07-18T00:36:12.037Z,6.97
2023-07-18T00:39:09.829Z,6.10
2023-07-18T00:42:08.143Z,6.07
2023-07-18T00:45:07.654Z,6.35
2023-07-18T00:48:05.998Z,5.78
2023-07-18T00:51:06.066Z,6.28
2023-07-18T00:54:04.730Z,6.10
2023-07-18T00:57:03.446Z,5.93
2023-07-18T01:00:01.888Z,6.90
2023-07-18T01:03:00.005Z,6.63
2023-07-18T01:05:58.096Z,6.35
2023-07-18T01:08:56.417Z,7.15
2023-07-18T01:11:54.381Z,6.07
2023-07-18T01:14:52.156Z,5.75
2023-07-18T01:17:51.123Z,6.75
2023-07-18T01:20:50.295Z,6.90
2023-07-18T01:23:48.412Z,6.70
2023-07-18T01:26:46.200Z,6.90
2023-07-18T01:29:44.130Z,6.10
2023-07-18T01:32:43.625Z,6.88
2023-07-18T01:35:41.693Z,6.72
2023-07-18T01:38:39.556Z,6.13
2023-07-18T01:41:37.500Z,6.82
2023-07-18T01:44:35.434Z,6.88
2023-07-18T01:47:33.665Z,7.47
2023-07-18T01:50:31.782Z,6.43
2023-07-18T01:53:29.685Z,6.85
2023-07-18T01:56:27.440Z,6.95
2023-07-18T01:59:25.326Z,6.75
2023-07-18T02:02:23.492Z,6.35
2023-07-18T02:05:24.806Z,7.40
2023-07-18T02:08:22.613Z,7.38
2023-07-18T02:11:20.830Z,6.85
2023-07-18T02:14:21.526Z,7.38
2023-07-18T02:17:19.538Z,7.47
2023-07-18T02:20:17.368Z,7.10
2023-07-18T02:23:15.431Z,7.25
2023-07-18T02:26:15.692Z,7.93
2023-07-18T02:29:14.851Z,8.13
2023-07-18T02:32:12.668Z,7.93
2023-07-18T02:35:12.359Z,7.90
2023-07-18T02:38:10.183Z,7.85
2023-07-18T02:41:08.079Z,8.13
2023-07-18T02:44:07.332Z,7.22
2023-07-18T02:47:06.369Z,7.70
2023-07-18T02:50:04.234Z,7.82
2023-07-18T02:53:02.154Z,8.20
2023-07-18T02:56:00.006Z,9.45
2023-07-18T02:58:57.895Z,8.75
2023-07-18T03:01:56.689Z,9.00
2023-07-18T03:04:54.660Z,8.65
2023-07-18T03:07:56.133Z,8.18
2023-07-18T03:10:54.185Z,9.25
2023-07-18T03:13:51.945Z,8.18
2023-07-18T03:16:50.777Z,8.48
2023-07-18T03:19:48.774Z,8.15
2023-07-18T03:22:48.337Z,8.07
2023-07-18T03:25:46.177Z,7.88
2023-07-18T03:28:44.079Z,7.47
2023-07-18T03:31:42.216Z,7.68
2023-07-18T03:34:40.225Z,8.18
2023-07-18T03:37:38.235Z,7.70
2023-07-18T03:40:36.170Z,8.30
2023-07-18T03:43:34.054Z,9.90
2023-07-18T03:46:31.992Z,9.68
2023-07-18T03:49:31.034Z,8.98
2023-07-18T03:52:28.940Z,9.85
2023-07-18T03:55:26.708Z,12.15
2023-07-18T03:58:24.541Z,12.20
2023-07-18T04:01:22.596Z,13.73
2023-07-18T04:04:20.930Z,13.68
2023-07-18T04:07:19.447Z,14.57
2023-07-18T04:10:17.528Z,16.80
2023-07-18T04:13:15.694Z,16.13
2023-07-18T04:16:14.345Z,17.92
2023-07-18T04:19:12.237Z,18.17
2023-07-18T04:22:10.149Z,16.85
2023-07-18T04:25:08.208Z,19.00
2023-07-18T04:28:06.219Z,22.80
2023-07-18T04:31:04.775Z,23.33
2023-07-18T04:34:02.709Z,22.88
2023-07-18T04:37:00.961Z,23.00
2023-07-18T04:39:58.886Z,24.38
2023-07-18T04:42:56.638Z,24.25
2023-07-18T04:45:55.007Z,25.05
2023-07-18T04:48:53.302Z,24.40
2023-07-18T04:51:53.018Z,24.65
2023-07-18T04:54:50.894Z,20.63
2023-07-18T04:57:48.755Z,21.90
2023-07-18T05:00:46.565Z,23.30
2023-07-18T05:03:56.696Z,21.20
2023-07-18T05:09:53.445Z,19.13
2023-07-18T05:12:55.797Z,19.15
2023-07-18T05:15:53.739Z,19.38
2023-07-18T05:18:51.611Z,17.40
2023-07-18T05:21:49.555Z,17.05
2023-07-18T05:24:47.342Z,17.23
2023-07-18T05:27:45.961Z,17.63
2023-07-18T05:30:43.908Z,16.38
2023-07-18T05:33:41.828Z,16.27
2023-07-18T05:36:39.620Z,17.95
2023-07-18T05:39:37.557Z,16.58
2023-07-18T05:42:35.269Z,16.75
2023-07-18T05:45:33.220Z,16.77
2023-07-18T05:48:32.264Z,16.33
2023-07-18T05:51:30.143Z,16.73
2023-07-18T05:54:28.064Z,15.77
2023-07-18T05:57:26.044Z,14.73
2023-07-18T06:00:24.036Z,16.25
2023-07-18T06:03:22.718Z,16.45
2023-07-18T06:06:20.989Z,17.58
2023-07-18T06:09:18.961Z,17.08
2023-07-18T06:12:17.689Z,16.25
2023-07-18T06:15:15.635Z,16.85
2023-07-18T06:18:13.364Z,18.52
2023-07-18T06:21:11.344Z,18.42
2023-07-18T06:24:18.670Z,17.25
2023-07-18T06:27:17.790Z,16.63
2023-07-18T06:30:15.727Z,15.00
2023-07-18T06:33:15.385Z,14.43
2023-07-18T06:36:14.103Z,14.32
2023-07-18T06:39:13.507Z,13.00
2023-07-18T06:42:11.398Z,14.40
2023-07-18T06:45:10.317Z,12.27
2023-07-18T06:48:08.502Z,13.30
2023-07-18T06:51:08.373Z,13.52
2023-07-18T06:54:06.243Z,13.07
2023-07-18T06:57:04.180Z,10.35
2023-07-18T07:00:02.077Z,12.85
2023-07-18T07:03:00.058Z,13.57
2023-07-18T07:05:57.890Z,13.65
2023-07-18T07:08:55.798Z,13.20
2023-07-18T07:11:53.548Z,13.50
2023-07-18T07:14:51.773Z,13.88
2023-07-18T07:17:49.590Z,13.45
2023-07-18T07:20:47.546Z,14.48
2023-07-18T07:23:45.334Z,14.00
2023-07-18T07:26:43.887Z,12.52
2023-07-18T07:29:42.042Z,12.27
2023-07-18T07:32:40.197Z,11.85
2023-07-18T07:35:38.000Z,13.43
2023-07-18T07:38:35.857Z,11.70
2023-07-18T07:41:33.728Z,12.15
2023-07-18T07:44:31.822Z,14.35
2023-07-18T07:47:29.686Z,13.95
2023-07-18T07:50:27.698Z,11.57
2023-07-18T07:53:25.527Z,10.75
2023-07-18T07:56:23.493Z,11.15
2023-07-18T07:59:21.279Z,10.98
2023-07-18T08:02:21.067Z,11.02
2023-07-18T08:05:19.016Z,10.20
2023-07-18T08:08:17.025Z,9.85
2023-07-18T08:11:14.769Z,9.43
2023-07-18T08:14:12.638Z,10.20
2023-07-18T08:17:10.452Z,9.63
2023-07-18T08:20:10.591Z,9.93
2023-07-18T08:23:08.837Z,9.48
2023-07-18T08:26:06.722Z,8.40
2023-07-18T08:29:04.471Z,9.98
2023-07-18T08:32:02.775Z,8.82
2023-07-18T08:35:00.668Z,10.18
2023-07-18T08:37:58.584Z,9.38
2023-07-18T08:40:59.810Z,9.32
2023-07-18T08:43:59.466Z,9.07
2023-07-18T08:46:58.221Z,9.00
2023-07-18T08:49:56.346Z,9.13
2023-07-18T08:52:54.193Z,8.52
2023-07-18T08:55:52.698Z,9.00
2023-07-18T08:58:50.632Z,8.05
2023-07-18T09:01:49.999Z,8.82
2023-07-18T09:04:48.728Z,9.20
2023-07-18T09:07:46.612Z,8.32
2023-07-18T09:10:44.514Z,9.02
2023-07-18T09:13:43.335Z,8.05
2023-07-18T09:16:45.013Z,9.02
2023-07-18T09:22:43.916Z,8.05
2023-07-18T09:25:41.877Z,8.30
2023-07-18T09:28:40.587Z,8.55
2023-07-18T09:31:39.985Z,7.82
2023-07-18T09:34:37.839Z,8.20
2023-07-18T09:37:47.791Z,8.02
2023-07-18T09:40:46.607Z,8.80
2023-07-18T09:43:45.475Z,8.23
2023-07-18T09:46:44.051Z,8.77
2023-07-18T09:49:44.812Z,9.27
2023-07-18T09:52:47.803Z,9.07
2023-07-18T09:55:46.118Z,8.82
2023-07-18T09:58:46.683Z,8.90
2023-07-18T10:01:45.256Z,8.25
2023-07-18T10:04:43.797Z,8.65
2023-07-18T10:07:42.996Z,7.90
2023-07-18T10:10:40.809Z,9.73
2023-07-18T10:14:12.661Z,10.02
2023-07-18T10:17:10.534Z,8.27
2023-07-18T10:20:20.646Z,8.02
2023-07-18T10:23:19.334Z,7.88
2023-07-18T10:26:17.613Z,7.93
2023-07-18T10:29:15.471Z,8.57
2023-07-18T10:32:13.769Z,8.05
2023-07-18T10:35:14.718Z,8.32
2023-07-18T10:38:15.855Z,8.10
2023-07-18T10:41:13.689Z,7.97
2023-07-18T10:44:15.937Z,8.65
2023-07-18T10:47:16.741Z,8.30
2023-07-18T10:53:17.054Z,8.13
2023-07-18T10:56:24.464Z,8.98
2023-07-18T10:59:23.779Z,8.05
2023-07-18T11:02:22.610Z,8.30
2023-07-18T11:05:20.569Z,8.60
2023-07-18T11:08:34.408Z,8.75
2023-07-18T11:11:32.181Z,8.73
2023-07-18T11:14:45.636Z,8.25
2023-07-18T11:17:45.310Z,8.52
2023-07-18T11:20:43.868Z,9.48
2023-07-18T11:23:43.310Z,8.35
2023-07-18T11:26:41.335Z,9.23
2023-07-18T11:29:39.331Z,8.30
2023-07-18T11:32:43.502Z,9.02
2023-07-18T11:35:47.541Z,8.75
2023-07-18T11:38:48.818Z,9.35
2023-07-18T11:41:46.900Z,8.52
2023-07-18T11:44:45.740Z,9.32
2023-07-18T11:47:46.251Z,8.80
2023-07-18T11:50:46.801Z,9.18
2023-07-18T11:53:44.713Z,8.88
2023-07-18T11:56:42.631Z,10.43
2023-07-18T11:59:40.433Z,9.70
2023-07-18T12:02:39.002Z,10.68
2023-07-18T12:05:36.819Z,10.20
2023-07-18T12:08:34.695Z,9.00
2023-07-18T12:11:32.704Z,8.68
2023-07-18T12:14:31.265Z,8.95
2023-07-18T12:17:29.142Z,9.15
2023-07-18T12:20:27.666Z,10.80
2023-07-18T12:23:25.604Z,8.88
2023-07-18T12:26:25.846Z,8.07
2023-07-18T12:29:23.985Z,8.10
2023-07-18T12:32:25.376Z,8.45
2023-07-18T12:35:25.239Z,8.60
2023-07-18T12:38:25.762Z,8.02
2023-07-18T12:44:26.885Z,8.05
2023-07-18T12:47:25.990Z,7.43
2023-07-18T12:50:25.941Z,8.52
2023-07-18T12:53:25.289Z,8.32
2023-07-18T12:56:23.522Z,7.70
2023-07-18T12:59:21.392Z,8.63
2023-07-18T13:02:19.364Z,6.95
2023-07-18T13:05:18.484Z,8.40
2023-07-18T13:28:10.275Z,9.30
2023-07-18T13:31:08.634Z,9.35
2023-07-18T13:34:06.760Z,9.88
2023-07-18T13:37:04.626Z,9.23
2023-07-18T13:40:02.636Z,8.80
2023-07-18T13:43:00.422Z,8.18
2023-07-18T13:45:58.382Z,10.35
2023-07-18T13:48:56.266Z,12.85
2023-07-18T13:51:54.232Z,12.77
2023-07-18T13:54:52.022Z,12.60
2023-07-18T13:57:50.418Z,12.60
2023-07-18T14:00:48.941Z,11.63
2023-07-18T14:03:47.044Z,10.27
2023-07-18T14:06:45.057Z,10.63
2023-07-18T14:09:43.134Z,11.10
2023-07-18T14:12:41.382Z,12.13
2023-07-18T14:15:39.317Z,11.68
2023-07-18T14:18:37.315Z,10.75
2023-07-18T14:21:35.351Z,10.27
2023-07-18T14:24:33.250Z,9.75
2023-07-18T14:27:31.201Z,10.55
2023-07-18T14:30:29.062Z,10.45
2023-07-18T14:33:27.015Z,9.57
2023-07-18T14:36:24.845Z,10.35
2023-07-18T14:39:22.899Z,9.40
2023-07-18T14:42:21.087Z,9.10
2023-07-18T14:45:19.410Z,8.50
2023-07-18T14:48:17.173Z,8.15
2023-07-18T14:51:15.572Z,7.88
2023-07-18T14:54:13.532Z,7.57
2023-07-18T14:57:11.448Z,7.40
2023-07-18T15:00:09.846Z,6.70
2023-07-18T15:03:07.914Z,6.75
2023-07-18T15:06:06.329Z,5.97
2023-07-18T15:09:04.346Z,6.20
2023-07-18T15:12:02.312Z,6.55
2023-07-18T15:15:00.273Z,6.38
2023-07-18T15:17:58.363Z,7.00
2023-07-18T15:20:56.395Z,6.75
2023-07-18T15:23:54.232Z,7.57
2023-07-18T15:26:52.210Z,6.38
2023-07-18T15:29:50.414Z,6.35
2023-07-18T15:32:48.340Z,6.70
2023-07-18T15:35:46.352Z,6.78
2023-07-18T15:38:46.314Z,6.57
2023-07-18T15:41:44.425Z,6.32
2023-07-18T15:44:42.507Z,6.60
2023-07-18T15:47:40.365Z,6.28
2023-07-18T15:50:38.398Z,7.45
2023-07-18T15:53:36.713Z,7.97
2023-07-18T15:56:34.632Z,8.23
2023-07-18T15:59:33.750Z,8.80
2023-07-18T16:02:32.359Z,8.32
2023-07-18T16:05:31.320Z,9.00
2023-07-18T16:08:29.296Z,8.25
2023-07-18T16:11:27.372Z,8.38
2023-07-18T16:14:25.765Z,8.27
2023-07-18T16:17:24.218Z,8.05
2023-07-18T16:20:22.171Z,8.05
2023-07-18T16:23:20.017Z,9.75
2023-07-18T16:26:20.640Z,9.07
2023-07-18T16:29:19.352Z,9.15
2023-07-18T16:32:17.719Z,9.05
2023-07-18T16:35:15.766Z,8.70
2023-07-18T16:38:13.811Z,9.05
2023-07-18T16:41:11.783Z,8.90
2023-07-18T16:44:11.662Z,8.82
2023-07-18T16:47:09.518Z,8.05
2023-07-18T16:50:08.177Z,8.27
2023-07-18T16:53:05.925Z,8.27
2023-07-18T16:56:03.897Z,8.73
2023-07-18T16:59:01.750Z,8.63
2023-07-18T17:01:59.712Z,9.02
2023-07-18T17:04:57.831Z,7.90
2023-07-18T17:07:55.846Z,8.63
2023-07-18T17:10:53.628Z,8.80
2023-07-18T17:13:52.718Z,8.50
2023-07-18T17:16:51.568Z,9.55
2023-07-18T17:20:04.692Z,9.60
2023-07-18T17:23:05.622Z,8.25
2023-07-18T17:26:03.589Z,8.88
2023-07-18T17:29:01.706Z,8.60
2023-07-18T17:31:59.766Z,8.70
2023-07-18T17:34:57.603Z,9.18
2023-07-18T17:37:55.533Z,9.10
2023-07-18T17:40:54.287Z,9.68
2023-07-18T17:43:52.475Z,9.48
2023-07-18T17:46:51.294Z,9.65
2023-07-18T17:49:49.274Z,10.07
2023-07-18T17:52:47.273Z,9.00
2023-07-18T17:55:45.197Z,8.77
2023-07-18T17:58:44.157Z,9.18
2023-07-18T18:01:42.231Z,9.65
2023-07-18T18:04:40.320Z,8.98
2023-07-18T18:07:38.288Z,10.60
2023-07-18T18:10:36.052Z,9.27
2023-07-18T18:13:34.039Z,9.95
2023-07-18T18:16:32.085Z,8.88
2023-07-18T18:19:30.090Z,8.63
2023-07-18T18:22:27.919Z,8.85
2023-07-18T18:25:25.955Z,8.63
2023-07-18T18:28:25.318Z,8.38
2023-07-18T18:31:23.643Z,8.30
2023-07-18T18:34:21.640Z,8.60
2023-07-18T18:37:19.604Z,8.25
2023-07-18T18:40:18.803Z,8.98
2023-07-18T18:43:16.668Z,8.00
2023-07-18T18:46:14.689Z,8.63
2023-07-18T18:49:26.007Z,7.97
2023-07-18T18:52:24.875Z,8.32
2023-07-18T18:55:25.374Z,8.68
2023-07-18T18:58:25.496Z,7.85
2023-07-18T19:01:23.659Z,9.23
2023-07-18T19:04:21.551Z,8.43
2023-07-18T19:07:21.871Z,8.52
2023-07-18T19:10:19.697Z,8.15
2023-07-18T19:13:18.304Z,7.80
2023-07-18T19:16:28.603Z,7.72
2023-07-18T19:19:43.517Z,8.52
2023-07-18T19:22:41.460Z,7.80
2023-07-18T19:25:39.473Z,7.43
2023-07-18T19:28:39.058Z,9.02
2023-07-18T19:31:37.220Z,7.97
2023-07-18T19:34:35.145Z,8.18
2023-07-18T19:37:33.647Z,7.88
2023-07-18T19:40:32.688Z,8.05
2023-07-18T19:43:32.984Z,8.13
2023-07-18T19:46:31.060Z,7.85
2023-07-18T19:49:30.489Z,8.10
2023-07-18T19:52:28.334Z,8.15
2023-07-18T19:55:26.251Z,8.05
2023-07-18T19:58:24.163Z,7.78
2023-07-18T20:01:22.587Z,7.05
2023-07-18T20:04:20.705Z,7.90
2023-07-18T20:07:18.825Z,7.40
2023-07-18T20:10:16.649Z,8.27
2023-07-18T20:13:14.546Z,8.15
2023-07-18T20:16:12.482Z,7.25
2023-07-18T20:19:10.369Z,7.38
2023-07-18T20:22:08.145Z,7.80
2023-07-18T20:25:06.659Z,7.35
2023-07-18T20:28:05.060Z,8.52
2023-07-18T20:31:03.138Z,8.43
2023-07-18T20:34:01.410Z,7.80
2023-07-18T20:36:59.296Z,8.45
2023-07-18T20:39:57.321Z,8.52
2023-07-18T20:42:55.204Z,8.82
2023-07-18T20:45:57.734Z,8.25
2023-07-18T20:48:55.741Z,8.18
2023-07-18T20:51:53.512Z,7.55
2023-07-18T20:54:51.970Z,7.65
2023-07-18T20:57:49.870Z,8.48
2023-07-18T21:00:48.966Z,8.95
2023-07-18T21:03:46.828Z,8.15
2023-07-18T21:06:44.815Z,7.93
2023-07-18T21:09:42.691Z,8.32
2023-07-18T21:12:40.612Z,8.00
2023-07-18T21:15:38.529Z,7.93
2023-07-18T21:18:36.446Z,7.82
2023-07-18T21:21:34.494Z,7.75
2023-07-18T21:24:32.395Z,7.32
2023-07-18T21:27:30.291Z,8.02
2023-07-18T21:30:28.456Z,8.00
2023-07-18T21:33:26.252Z,8.20
2023-07-18T21:36:24.340Z,7.82
2023-07-18T21:39:22.127Z,8.02
2023-07-18T21:42:20.150Z,7.68
2023-07-18T21:45:18.186Z,7.43
2023-07-18T21:48:16.142Z,7.60
2023-07-18T21:51:13.970Z,8.90
2023-07-18T21:54:11.911Z,8.13
2023-07-18T21:57:09.792Z,8.50
2023-07-18T22:00:08.467Z,8.55
2023-07-18T22:03:06.546Z,7.93
2023-07-18T22:06:04.570Z,8.27
2023-07-18T22:09:02.374Z,7.68
2023-07-18T22:12:00.315Z,8.77
2023-07-18T22:14:58.424Z,8.02
2023-07-18T22:17:56.467Z,8.32
2023-07-18T22:20:54.635Z,8.43
2023-07-18T22:23:52.519Z,7.70
2023-07-18T22:26:51.209Z,7.63
2023-07-18T22:29:49.152Z,7.95
2023-07-18T22:32:46.968Z,7.75
2023-07-18T22:35:45.109Z,8.07
2023-07-18T22:38:42.919Z,8.13
2023-07-18T22:41:41.010Z,8.65
2023-07-18T22:44:38.804Z,8.90
2023-07-18T22:47:36.702Z,8.65
2023-07-18T22:50:34.503Z,7.70
2023-07-18T22:53:34.103Z,8.52
2023-07-18T22:56:32.043Z,8.20
2023-07-18T22:59:29.985Z,8.57
2023-07-18T23:02:27.757Z,7.95
2023-07-18T23:05:25.798Z,9.05
2023-07-18T23:08:23.736Z,8.63
2023-07-18T23:11:22.069Z,8.00
2023-07-18T23:14:21.192Z,8.52
2023-07-18T23:17:19.256Z,8.18
2023-07-18T23:20:17.170Z,8.20
2023-07-18T23:23:15.465Z,7.65
2023-07-18T23:26:13.459Z,8.60
2023-07-18T23:29:11.503Z,7.65
2023-07-18T23:32:09.594Z,8.57
2023-07-18T23:35:08.237Z,8.07
2023-07-18T23:38:06.143Z,7.82
2023-07-18T23:41:04.243Z,7.88
2023-07-18T23:44:02.181Z,8.25
2023-07-18T23:47:00.478Z,8.00
2023-07-18T23:49:58.387Z,8.07
2023-07-18T23:52:57.422Z,8.38
2023-07-18T23:55:55.476Z,7.65
2023-07-18T23:58:53.587Z,8.75
